sensor_id;sensor_type;location;lat;lon;timestamp;P1;durP1;ratioP1;P2;durP2;ratioP2
22985;SDS011;11659;51.092;7.080;2022-08-21T00:00:05;5.70;;;5.10;;
22985;SDS011;11659;51.092;7.080;2022-08-21T00:02:43;5.70;;;5.10;;
22985;SDS011;11659;51.092;7.080;2022-08-21T00:05:12;6.03;;;5.43;;
22985;SDS011;11659;51.092;7.080;2022-08-21T00:07:38;6.37;;;5.17;;
22985;SDS011;11659;51.092;7.080;2022-08-21T00:10:05;6.27;;;5.00;;
22985;SDS011;11659;51.092;7.080;2022-08-21T00:12:31;5.77;;;4.97;;
22985;SDS011;11659;51.092;7.080;2022-08-21T00:14:57;6.50;;;5.57;;
22985;SDS011;11659;51.092;7.080;2022-08-21T00:17:25;6.83;;;5.57;;
22985;SDS011;11659;51.092;7.080;2022-08-21T00:19:51;5.90;;;5.30;;
22985;SDS011;11659;51.092;7.080;2022-08-21T00:22:17;6.53;;;5.43;;
22985;SDS011;11659;51.092;7.080;2022-08-21T00:24:43;5.60;;;4.77;;
22985;SDS011;11659;51.092;7.080;2022-08-21T00:27:09;5.87;;;5.27;;
22985;SDS011;11659;51.092;7.080;2022-08-21T00:29:35;4.90;;;4.40;;
22985;SDS011;11659;51.092;7.080;2022-08-21T00:32:01;5.40;;;4.87;;
22985;SDS011;11659;51.092;7.080;2022-08-21T00:34:28;6.70;;;5.43;;
22985;SDS011;11659;51.092;7.080;2022-08-21T00:36:54;6.10;;;5.13;;
22985;SDS011;11659;51.092;7.080;2022-08-21T00:39:20;6.93;;;5.53;;
22985;SDS011;11659;51.092;7.080;2022-08-21T00:41:46;7.40;;;5.47;;
22985;SDS011;11659;51.092;7.080;2022-08-21T00:44:13;6.20;;;5.17;;
22985;SDS011;11659;51.092;7.080;2022-08-21T00:46:40;6.67;;;5.03;;
22985;SDS011;11659;51.092;7.080;2022-08-21T00:49:07;5.77;;;4.90;;
22985;SDS011;11659;51.092;7.080;2022-08-21T00:51:37;6.13;;;4.63;;
22985;SDS011;11659;51.092;7.080;2022-08-21T00:54:07;5.50;;;4.63;;
22985;SDS011;11659;51.092;7.080;2022-08-21T00:56:35;5.80;;;4.97;;
22985;SDS011;11659;51.092;7.080;2022-08-21T00:59:01;6.60;;;4.57;;
22985;SDS011;11659;51.092;7.080;2022-08-21T01:01:29;5.77;;;5.10;;
22985;SDS011;11659;51.092;7.080;2022-08-21T01:03:55;5.70;;;4.80;;
22985;SDS011;11659;51.092;7.080;2022-08-21T01:06:21;6.10;;;4.83;;
22985;SDS011;11659;51.092;7.080;2022-08-21T01:08:48;6.00;;;4.57;;
22985;SDS011;11659;51.092;7.080;2022-08-21T01:11:14;6.13;;;4.57;;
22985;SDS011;11659;51.092;7.080;2022-08-21T01:13:40;5.03;;;4.43;;
22985;SDS011;11659;51.092;7.080;2022-08-21T01:16:11;6.73;;;5.13;;
22985;SDS011;11659;51.092;7.080;2022-08-21T01:18:40;5.53;;;4.70;;
22985;SDS011;11659;51.092;7.080;2022-08-21T01:21:10;5.20;;;4.17;;
22985;SDS011;11659;51.092;7.080;2022-08-21T01:23:40;6.23;;;4.40;;
22985;SDS011;11659;51.092;7.080;2022-08-21T01:26:08;4.53;;;4.10;;
22985;SDS011;11659;51.092;7.080;2022-08-21T01:28:37;5.13;;;4.50;;
22985;SDS011;11659;51.092;7.080;2022-08-21T01:31:06;5.10;;;4.33;;
22985;SDS011;11659;51.092;7.080;2022-08-21T01:33:35;6.37;;;4.43;;
22985;SDS011;11659;51.092;7.080;2022-08-21T01:36:01;4.73;;;4.13;;
22985;SDS011;11659;51.092;7.080;2022-08-21T01:38:28;5.37;;;4.23;;
22985;SDS011;11659;51.092;7.080;2022-08-21T01:40:55;4.40;;;3.90;;
22985;SDS011;11659;51.092;7.080;2022-08-21T01:43:21;4.40;;;4.00;;
22985;SDS011;11659;51.092;7.080;2022-08-21T01:45:46;5.30;;;4.17;;
22985;SDS011;11659;51.092;7.080;2022-08-21T01:48:12;5.13;;;4.30;;
22985;SDS011;11659;51.092;7.080;2022-08-21T01:50:38;4.60;;;4.10;;
22985;SDS011;11659;51.092;7.080;2022-08-21T01:53:04;4.13;;;3.73;;
22985;SDS011;11659;51.092;7.080;2022-08-21T01:55:32;4.50;;;4.00;;
22985;SDS011;11659;51.092;7.080;2022-08-21T01:57:58;5.07;;;4.30;;
22985;SDS011;11659;51.092;7.080;2022-08-21T02:00:25;3.97;;;3.40;;
22985;SDS011;11659;51.092;7.080;2022-08-21T02:02:51;4.40;;;3.93;;
22985;SDS011;11659;51.092;7.080;2022-08-21T02:05:17;4.20;;;3.70;;
22985;SDS011;11659;51.092;7.080;2022-08-21T02:07:45;4.50;;;4.10;;
22985;SDS011;11659;51.092;7.080;2022-08-21T02:10:14;4.03;;;3.30;;
22985;SDS011;11659;51.092;7.080;2022-08-21T02:12:43;4.37;;;3.83;;
22985;SDS011;11659;51.092;7.080;2022-08-21T02:15:10;4.80;;;4.13;;
22985;SDS011;11659;51.092;7.080;2022-08-21T02:17:37;4.33;;;3.80;;
22985;SDS011;11659;51.092;7.080;2022-08-21T02:20:05;5.00;;;3.73;;
22985;SDS011;11659;51.092;7.080;2022-08-21T02:22:32;5.03;;;4.10;;
22985;SDS011;11659;51.092;7.080;2022-08-21T02:24:58;4.33;;;3.93;;
22985;SDS011;11659;51.092;7.080;2022-08-21T02:27:25;4.90;;;4.20;;
22985;SDS011;11659;51.092;7.080;2022-08-21T02:29:53;4.20;;;3.80;;
22985;SDS011;11659;51.092;7.080;2022-08-21T02:32:20;4.10;;;3.67;;
22985;SDS011;11659;51.092;7.080;2022-08-21T02:34:46;5.57;;;4.20;;
22985;SDS011;11659;51.092;7.080;2022-08-21T02:37:12;4.60;;;4.10;;
22985;SDS011;11659;51.092;7.080;2022-08-21T02:39:38;5.50;;;4.50;;
22985;SDS011;11659;51.092;7.080;2022-08-21T02:42:04;5.43;;;4.20;;
22985;SDS011;11659;51.092;7.080;2022-08-21T02:44:30;5.77;;;4.20;;
22985;SDS011;11659;51.092;7.080;2022-08-21T02:46:58;5.30;;;4.20;;
22985;SDS011;11659;51.092;7.080;2022-08-21T02:49:24;5.00;;;4.20;;
22985;SDS011;11659;51.092;7.080;2022-08-21T02:51:50;5.00;;;4.13;;
22985;SDS011;11659;51.092;7.080;2022-08-21T02:54:16;5.20;;;4.47;;
22985;SDS011;11659;51.092;7.080;2022-08-21T02:56:42;4.63;;;4.00;;
22985;SDS011;11659;51.092;7.080;2022-08-21T02:59:08;5.53;;;4.03;;
22985;SDS011;11659;51.092;7.080;2022-08-21T03:01:33;4.70;;;3.93;;
22985;SDS011;11659;51.092;7.080;2022-08-21T03:04:01;4.53;;;4.00;;
22985;SDS011;11659;51.092;7.080;2022-08-21T03:06:27;4.67;;;4.03;;
22985;SDS011;11659;51.092;7.080;2022-08-21T03:08:54;4.33;;;3.93;;
22985;SDS011;11659;51.092;7.080;2022-08-21T03:11:20;4.37;;;3.97;;
22985;SDS011;11659;51.092;7.080;2022-08-21T03:13:46;4.37;;;3.93;;
22985;SDS011;11659;51.092;7.080;2022-08-21T03:16:12;4.57;;;4.13;;
22985;SDS011;11659;51.092;7.080;2022-08-21T03:18:38;4.23;;;3.77;;
22985;SDS011;11659;51.092;7.080;2022-08-21T03:21:06;5.93;;;4.23;;
22985;SDS011;11659;51.092;7.080;2022-08-21T03:23:32;4.93;;;4.43;;
22985;SDS011;11659;51.092;7.080;2022-08-21T03:25:58;4.20;;;3.80;;
22985;SDS011;11659;51.092;7.080;2022-08-21T03:28:24;5.53;;;4.23;;
22985;SDS011;11659;51.092;7.080;2022-08-21T03:30:51;3.83;;;3.43;;
22985;SDS011;11659;51.092;7.080;2022-08-21T03:33:18;4.63;;;3.70;;
22985;SDS011;11659;51.092;7.080;2022-08-21T03:35:46;5.47;;;4.33;;
22985;SDS011;11659;51.092;7.080;2022-08-21T03:38:16;5.60;;;4.10;;
22985;SDS011;11659;51.092;7.080;2022-08-21T03:40:42;4.83;;;4.00;;
22985;SDS011;11659;51.092;7.080;2022-08-21T03:43:08;4.70;;;4.17;;
22985;SDS011;11659;51.092;7.080;2022-08-21T03:45:34;4.50;;;4.10;;
22985;SDS011;11659;51.092;7.080;2022-08-21T03:48:02;6.27;;;4.43;;
22985;SDS011;11659;51.092;7.080;2022-08-21T03:50:31;5.27;;;4.50;;
22985;SDS011;11659;51.092;7.080;2022-08-21T03:52:59;4.73;;;3.77;;
22985;SDS011;11659;51.092;7.080;2022-08-21T03:55:27;5.20;;;4.10;;
22985;SDS011;11659;51.092;7.080;2022-08-21T03:57:53;4.57;;;4.07;;
22985;SDS011;11659;51.092;7.080;2022-08-21T04:00:19;5.60;;;3.90;;
22985;SDS011;11659;51.092;7.080;2022-08-21T04:02:46;5.37;;;4.33;;
22985;SDS011;11659;51.092;7.080;2022-08-21T04:05:13;4.80;;;4.13;;
22985;SDS011;11659;51.092;7.080;2022-08-21T04:07:52;4.23;;;3.70;;
22985;SDS011;11659;51.092;7.080;2022-08-21T04:10:19;4.10;;;3.67;;
22985;SDS011;11659;51.092;7.080;2022-08-21T04:12:47;4.97;;;4.03;;
22985;SDS011;11659;51.092;7.080;2022-08-21T04:15:13;4.87;;;4.07;;
22985;SDS011;11659;51.092;7.080;2022-08-21T04:17:39;5.07;;;4.33;;
22985;SDS011;11659;51.092;7.080;2022-08-21T04:20:06;5.87;;;4.30;;
22985;SDS011;11659;51.092;7.080;2022-08-21T04:22:32;5.03;;;4.00;;
22985;SDS011;11659;51.092;7.080;2022-08-21T04:24:58;4.40;;;3.97;;
22985;SDS011;11659;51.092;7.080;2022-08-21T04:27:24;5.37;;;4.00;;
22985;SDS011;11659;51.092;7.080;2022-08-21T04:29:51;5.60;;;3.97;;
22985;SDS011;11659;51.092;7.080;2022-08-21T04:32:21;5.20;;;4.63;;
22985;SDS011;11659;51.092;7.080;2022-08-21T04:34:47;5.20;;;4.50;;
22985;SDS011;11659;51.092;7.080;2022-08-21T04:37:17;5.30;;;3.83;;
22985;SDS011;11659;51.092;7.080;2022-08-21T04:39:43;4.40;;;4.00;;
22985;SDS011;11659;51.092;7.080;2022-08-21T04:42:09;4.37;;;3.87;;
22985;SDS011;11659;51.092;7.080;2022-08-21T04:44:35;4.20;;;3.80;;
22985;SDS011;11659;51.092;7.080;2022-08-21T04:47:03;4.70;;;4.20;;
22985;SDS011;11659;51.092;7.080;2022-08-21T04:49:29;4.73;;;4.07;;
22985;SDS011;11659;51.092;7.080;2022-08-21T04:51:56;4.53;;;3.77;;
22985;SDS011;11659;51.092;7.080;2022-08-21T04:54:22;5.50;;;3.80;;
22985;SDS011;11659;51.092;7.080;2022-08-21T04:56:48;5.57;;;4.10;;
22985;SDS011;11659;51.092;7.080;2022-08-21T04:59:19;4.83;;;3.93;;
22985;SDS011;11659;51.092;7.080;2022-08-21T05:01:48;4.90;;;4.00;;
22985;SDS011;11659;51.092;7.080;2022-08-21T05:04:18;5.90;;;4.03;;
22985;SDS011;11659;51.092;7.080;2022-08-21T05:06:49;4.77;;;4.17;;
22985;SDS011;11659;51.092;7.080;2022-08-21T05:09:18;4.63;;;4.03;;
22985;SDS011;11659;51.092;7.080;2022-08-21T05:11:45;5.77;;;3.87;;
22985;SDS011;11659;51.092;7.080;2022-08-21T05:14:12;4.57;;;3.60;;
22985;SDS011;11659;51.092;7.080;2022-08-21T05:16:38;4.57;;;3.67;;
22985;SDS011;11659;51.092;7.080;2022-08-21T05:19:05;4.53;;;4.10;;
22985;SDS011;11659;51.092;7.080;2022-08-21T05:21:33;4.57;;;3.63;;
22985;SDS011;11659;51.092;7.080;2022-08-21T05:24:00;4.50;;;4.10;;
22985;SDS011;11659;51.092;7.080;2022-08-21T05:26:25;5.07;;;4.30;;
22985;SDS011;11659;51.092;7.080;2022-08-21T05:28:52;4.00;;;3.57;;
22985;SDS011;11659;51.092;7.080;2022-08-21T05:31:17;4.17;;;3.53;;
22985;SDS011;11659;51.092;7.080;2022-08-21T05:33:43;4.67;;;3.90;;
22985;SDS011;11659;51.092;7.080;2022-08-21T05:36:09;5.93;;;4.90;;
22985;SDS011;11659;51.092;7.080;2022-08-21T05:38:37;4.83;;;4.00;;
22985;SDS011;11659;51.092;7.080;2022-08-21T05:41:03;4.70;;;3.90;;
22985;SDS011;11659;51.092;7.080;2022-08-21T05:43:29;5.00;;;3.90;;
22985;SDS011;11659;51.092;7.080;2022-08-21T05:45:58;4.47;;;3.87;;
22985;SDS011;11659;51.092;7.080;2022-08-21T05:48:24;5.30;;;3.93;;
22985;SDS011;11659;51.092;7.080;2022-08-21T05:50:51;5.43;;;4.07;;
22985;SDS011;11659;51.092;7.080;2022-08-21T05:53:18;4.33;;;3.80;;
22985;SDS011;11659;51.092;7.080;2022-08-21T05:55:47;4.17;;;3.77;;
22985;SDS011;11659;51.092;7.080;2022-08-21T05:58:14;4.57;;;4.03;;
22985;SDS011;11659;51.092;7.080;2022-08-21T06:00:41;4.50;;;3.90;;
22985;SDS011;11659;51.092;7.080;2022-08-21T06:03:10;4.87;;;4.37;;
22985;SDS011;11659;51.092;7.080;2022-08-21T06:05:37;5.40;;;4.47;;
22985;SDS011;11659;51.092;7.080;2022-08-21T06:08:03;4.10;;;3.70;;
22985;SDS011;11659;51.092;7.080;2022-08-21T06:10:29;4.13;;;3.57;;
22985;SDS011;11659;51.092;7.080;2022-08-21T06:12:56;5.17;;;4.07;;
22985;SDS011;11659;51.092;7.080;2022-08-21T06:15:22;4.97;;;4.33;;
22985;SDS011;11659;51.092;7.080;2022-08-21T06:17:48;4.50;;;4.10;;
22985;SDS011;11659;51.092;7.080;2022-08-21T06:20:14;4.50;;;4.10;;
22985;SDS011;11659;51.092;7.080;2022-08-21T06:22:40;5.10;;;4.23;;
22985;SDS011;11659;51.092;7.080;2022-08-21T06:25:06;5.23;;;4.43;;
22985;SDS011;11659;51.092;7.080;2022-08-21T06:27:34;5.77;;;4.87;;
22985;SDS011;11659;51.092;7.080;2022-08-21T06:30:01;5.20;;;4.70;;
22985;SDS011;11659;51.092;7.080;2022-08-21T06:32:28;6.57;;;5.27;;
22985;SDS011;11659;51.092;7.080;2022-08-21T06:34:54;5.77;;;5.10;;
22985;SDS011;11659;51.092;7.080;2022-08-21T06:37:20;5.97;;;5.27;;
22985;SDS011;11659;51.092;7.080;2022-08-21T06:39:46;6.73;;;6.03;;
22985;SDS011;11659;51.092;7.080;2022-08-21T06:42:15;7.30;;;6.03;;
22985;SDS011;11659;51.092;7.080;2022-08-21T06:44:43;7.00;;;5.90;;
22985;SDS011;11659;51.092;7.080;2022-08-21T06:47:10;7.67;;;6.20;;
22985;SDS011;11659;51.092;7.080;2022-08-21T06:49:36;6.07;;;5.47;;
22985;SDS011;11659;51.092;7.080;2022-08-21T06:52:02;8.23;;;6.27;;
22985;SDS011;11659;51.092;7.080;2022-08-21T06:54:29;7.53;;;6.40;;
22985;SDS011;11659;51.092;7.080;2022-08-21T06:56:55;8.10;;;6.80;;
22985;SDS011;11659;51.092;7.080;2022-08-21T06:59:21;6.33;;;5.63;;
22985;SDS011;11659;51.092;7.080;2022-08-21T07:01:47;6.90;;;5.97;;
22985;SDS011;11659;51.092;7.080;2022-08-21T07:04:15;6.13;;;5.53;;
22985;SDS011;11659;51.092;7.080;2022-08-21T07:06:40;6.80;;;6.10;;
22985;SDS011;11659;51.092;7.080;2022-08-21T07:09:06;7.27;;;5.50;;
22985;SDS011;11659;51.092;7.080;2022-08-21T07:11:33;5.67;;;5.10;;
22985;SDS011;11659;51.092;7.080;2022-08-21T07:14:00;5.43;;;4.57;;
22985;SDS011;11659;51.092;7.080;2022-08-21T07:16:26;5.23;;;4.47;;
22985;SDS011;11659;51.092;7.080;2022-08-21T07:18:52;5.27;;;4.60;;
22985;SDS011;11659;51.092;7.080;2022-08-21T07:21:20;4.50;;;4.10;;
22985;SDS011;11659;51.092;7.080;2022-08-21T07:23:47;5.53;;;4.37;;
22985;SDS011;11659;51.092;7.080;2022-08-21T07:26:16;6.30;;;4.90;;
22985;SDS011;11659;51.092;7.080;2022-08-21T07:28:44;5.83;;;4.77;;
22985;SDS011;11659;51.092;7.080;2022-08-21T07:31:10;5.73;;;4.80;;
22985;SDS011;11659;51.092;7.080;2022-08-21T07:33:40;7.37;;;5.07;;
22985;SDS011;11659;51.092;7.080;2022-08-21T07:36:07;6.07;;;4.07;;
22985;SDS011;11659;51.092;7.080;2022-08-21T07:38:34;6.07;;;3.93;;
22985;SDS011;11659;51.092;7.080;2022-08-21T07:41:01;5.77;;;3.87;;
22985;SDS011;11659;51.092;7.080;2022-08-21T07:43:28;5.37;;;4.00;;
22985;SDS011;11659;51.092;7.080;2022-08-21T07:45:55;7.17;;;3.53;;
22985;SDS011;11659;51.092;7.080;2022-08-21T07:48:22;4.90;;;3.70;;
22985;SDS011;11659;51.092;7.080;2022-08-21T07:50:49;4.47;;;3.77;;
22985;SDS011;11659;51.092;7.080;2022-08-21T07:53:16;4.80;;;3.63;;
22985;SDS011;11659;51.092;7.080;2022-08-21T07:55:43;5.90;;;3.87;;
22985;SDS011;11659;51.092;7.080;2022-08-21T07:58:09;4.03;;;3.30;;
22985;SDS011;11659;51.092;7.080;2022-08-21T08:00:35;4.27;;;3.57;;
22985;SDS011;11659;51.092;7.080;2022-08-21T08:03:01;3.30;;;2.90;;
22985;SDS011;11659;51.092;7.080;2022-08-21T08:05:28;4.67;;;3.33;;
22985;SDS011;11659;51.092;7.080;2022-08-21T08:07:55;4.27;;;3.20;;
22985;SDS011;11659;51.092;7.080;2022-08-21T08:10:22;4.20;;;3.33;;
22985;SDS011;11659;51.092;7.080;2022-08-21T08:12:50;4.63;;;3.00;;
22985;SDS011;11659;51.092;7.080;2022-08-21T08:15:17;5.73;;;3.50;;
22985;SDS011;11659;51.092;7.080;2022-08-21T08:17:45;5.53;;;2.90;;
22985;SDS011;11659;51.092;7.080;2022-08-21T08:20:14;4.10;;;2.93;;
22985;SDS011;11659;51.092;7.080;2022-08-21T08:22:41;3.93;;;2.80;;
22985;SDS011;11659;51.092;7.080;2022-08-21T08:25:08;6.23;;;3.03;;
22985;SDS011;11659;51.092;7.080;2022-08-21T08:27:35;4.60;;;3.13;;
22985;SDS011;11659;51.092;7.080;2022-08-21T08:30:03;3.83;;;3.30;;
22985;SDS011;11659;51.092;7.080;2022-08-21T08:32:31;5.60;;;2.70;;
22985;SDS011;11659;51.092;7.080;2022-08-21T08:34:57;3.90;;;2.70;;
22985;SDS011;11659;51.092;7.080;2022-08-21T08:37:23;4.00;;;2.50;;
22985;SDS011;11659;51.092;7.080;2022-08-21T08:39:49;4.03;;;2.60;;
22985;SDS011;11659;51.092;7.080;2022-08-21T08:42:17;4.50;;;2.83;;
22985;SDS011;11659;51.092;7.080;2022-08-21T08:44:48;4.00;;;2.67;;
22985;SDS011;11659;51.092;7.080;2022-08-21T08:47:19;4.23;;;2.27;;
22985;SDS011;11659;51.092;7.080;2022-08-21T08:49:49;4.40;;;2.43;;
22985;SDS011;11659;51.092;7.080;2022-08-21T08:52:26;4.03;;;2.50;;
22985;SDS011;11659;51.092;7.080;2022-08-21T08:54:58;2.53;;;2.30;;
22985;SDS011;11659;51.092;7.080;2022-08-21T08:57:28;4.07;;;2.70;;
22985;SDS011;11659;51.092;7.080;2022-08-21T08:59:56;3.43;;;2.43;;
22985;SDS011;11659;51.092;7.080;2022-08-21T09:02:26;4.67;;;2.47;;
22985;SDS011;11659;51.092;7.080;2022-08-21T09:04:55;3.73;;;2.60;;
22985;SDS011;11659;51.092;7.080;2022-08-21T09:07:24;5.97;;;2.50;;
22985;SDS011;11659;51.092;7.080;2022-08-21T09:10:05;5.23;;;2.73;;
22985;SDS011;11659;51.092;7.080;2022-08-21T09:12:39;4.43;;;2.20;;
22985;SDS011;11659;51.092;7.080;2022-08-21T09:15:19;4.83;;;2.77;;
22985;SDS011;11659;51.092;7.080;2022-08-21T09:17:56;3.60;;;1.70;;
22985;SDS011;11659;51.092;7.080;2022-08-21T09:20:44;3.57;;;2.10;;
22985;SDS011;11659;51.092;7.080;2022-08-21T09:23:23;3.67;;;1.90;;
22985;SDS011;11659;51.092;7.080;2022-08-21T09:25:56;2.83;;;1.87;;
22985;SDS011;11659;51.092;7.080;2022-08-21T09:28:30;4.87;;;1.80;;
22985;SDS011;11659;51.092;7.080;2022-08-21T09:30:58;4.97;;;2.27;;
22985;SDS011;11659;51.092;7.080;2022-08-21T09:33:29;4.03;;;2.33;;
22985;SDS011;11659;51.092;7.080;2022-08-21T09:35:55;5.40;;;1.90;;
22985;SDS011;11659;51.092;7.080;2022-08-21T09:38:26;5.43;;;2.00;;
22985;SDS011;11659;51.092;7.080;2022-08-21T09:40:58;3.70;;;1.80;;
22985;SDS011;11659;51.092;7.080;2022-08-21T09:43:26;3.23;;;1.60;;
22985;SDS011;11659;51.092;7.080;2022-08-21T09:48:48;4.77;;;1.90;;
22985;SDS011;11659;51.092;7.080;2022-08-21T09:51:16;4.47;;;1.70;;
22985;SDS011;11659;51.092;7.080;2022-08-21T09:53:46;3.43;;;1.77;;
22985;SDS011;11659;51.092;7.080;2022-08-21T09:56:19;3.17;;;1.97;;
22985;SDS011;11659;51.092;7.080;2022-08-21T09:59:13;4.03;;;1.57;;
22985;SDS011;11659;51.092;7.080;2022-08-21T10:01:51;2.57;;;1.70;;
22985;SDS011;11659;51.092;7.080;2022-08-21T10:04:24;2.67;;;1.40;;
22985;SDS011;11659;51.092;7.080;2022-08-21T10:06:53;3.77;;;1.60;;
22985;SDS011;11659;51.092;7.080;2022-08-21T10:09:20;3.30;;;1.70;;
22985;SDS011;11659;51.092;7.080;2022-08-21T10:11:49;2.13;;;1.37;;
22985;SDS011;11659;51.092;7.080;2022-08-21T10:14:24;2.77;;;1.40;;
22985;SDS011;11659;51.092;7.080;2022-08-21T10:17:03;3.57;;;1.53;;
22985;SDS011;11659;51.092;7.080;2022-08-21T10:19:39;3.87;;;1.40;;
22985;SDS011;11659;51.092;7.080;2022-08-21T10:22:15;3.00;;;1.70;;
22985;SDS011;11659;51.092;7.080;2022-08-21T10:24:58;3.00;;;1.43;;
22985;SDS011;11659;51.092;7.080;2022-08-21T10:27:37;2.90;;;1.30;;
22985;SDS011;11659;51.092;7.080;2022-08-21T10:30:08;3.93;;;1.70;;
22985;SDS011;11659;51.092;7.080;2022-08-21T10:32:42;3.17;;;1.40;;
22985;SDS011;11659;51.092;7.080;2022-08-21T10:35:28;2.43;;;1.43;;
22985;SDS011;11659;51.092;7.080;2022-08-21T10:38:01;2.17;;;1.30;;
22985;SDS011;11659;51.092;7.080;2022-08-21T10:40:37;3.17;;;1.30;;
22985;SDS011;11659;51.092;7.080;2022-08-21T10:43:15;2.23;;;1.40;;
22985;SDS011;11659;51.092;7.080;2022-08-21T10:45:49;2.97;;;1.43;;
22985;SDS011;11659;51.092;7.080;2022-08-21T10:48:24;4.67;;;1.43;;
22985;SDS011;11659;51.092;7.080;2022-08-21T10:50:55;3.70;;;1.50;;
22985;SDS011;11659;51.092;7.080;2022-08-21T10:56:21;3.27;;;1.40;;
22985;SDS011;11659;51.092;7.080;2022-08-21T10:58:51;3.67;;;1.23;;
22985;SDS011;11659;51.092;7.080;2022-08-21T11:01:28;2.43;;;1.50;;
22985;SDS011;11659;51.092;7.080;2022-08-21T11:04:03;2.33;;;1.33;;
22985;SDS011;11659;51.092;7.080;2022-08-21T11:06:38;2.23;;;1.30;;
22985;SDS011;11659;51.092;7.080;2022-08-21T11:09:11;3.93;;;1.37;;
22985;SDS011;11659;51.092;7.080;2022-08-21T11:11:40;2.43;;;1.40;;
22985;SDS011;11659;51.092;7.080;2022-08-21T11:14:13;2.37;;;1.27;;
22985;SDS011;11659;51.092;7.080;2022-08-21T11:16:48;1.77;;;0.97;;
22985;SDS011;11659;51.092;7.080;2022-08-21T11:19:19;2.00;;;1.10;;
22985;SDS011;11659;51.092;7.080;2022-08-21T11:21:54;5.27;;;1.47;;
22985;SDS011;11659;51.092;7.080;2022-08-21T11:24:29;3.80;;;1.40;;
22985;SDS011;11659;51.092;7.080;2022-08-21T11:26:58;2.93;;;1.17;;
22985;SDS011;11659;51.092;7.080;2022-08-21T11:29:29;2.23;;;1.33;;
22985;SDS011;11659;51.092;7.080;2022-08-21T11:32:01;3.30;;;1.27;;
22985;SDS011;11659;51.092;7.080;2022-08-21T11:34:57;1.77;;;1.10;;
22985;SDS011;11659;51.092;7.080;2022-08-21T11:37:34;2.67;;;1.50;;
22985;SDS011;11659;51.092;7.080;2022-08-21T11:40:19;1.70;;;1.10;;
22985;SDS011;11659;51.092;7.080;2022-08-21T11:42:59;2.40;;;1.50;;
22985;SDS011;11659;51.092;7.080;2022-08-21T11:45:38;2.77;;;1.43;;
22985;SDS011;11659;51.092;7.080;2022-08-21T11:48:12;3.13;;;1.17;;
22985;SDS011;11659;51.092;7.080;2022-08-21T11:50:44;1.13;;;0.80;;
22985;SDS011;11659;51.092;7.080;2022-08-21T11:53:13;2.23;;;1.23;;
22985;SDS011;11659;51.092;7.080;2022-08-21T11:55:44;2.63;;;1.13;;
22985;SDS011;11659;51.092;7.080;2022-08-21T11:58:16;1.83;;;1.20;;
22985;SDS011;11659;51.092;7.080;2022-08-21T12:00:47;2.47;;;1.23;;
22985;SDS011;11659;51.092;7.080;2022-08-21T12:03:17;2.30;;;1.10;;
22985;SDS011;11659;51.092;7.080;2022-08-21T12:05:52;2.50;;;1.13;;
22985;SDS011;11659;51.092;7.080;2022-08-21T12:08:27;1.73;;;1.33;;
22985;SDS011;11659;51.092;7.080;2022-08-21T12:10:59;4.87;;;1.60;;
22985;SDS011;11659;51.092;7.080;2022-08-21T12:13:29;2.40;;;1.20;;
22985;SDS011;11659;51.092;7.080;2022-08-21T12:16:04;1.77;;;0.97;;
22985;SDS011;11659;51.092;7.080;2022-08-21T12:18:32;2.83;;;1.03;;
22985;SDS011;11659;51.092;7.080;2022-08-21T12:21:01;1.83;;;0.90;;
22985;SDS011;11659;51.092;7.080;2022-08-21T12:23:32;2.70;;;1.13;;
22985;SDS011;11659;51.092;7.080;2022-08-21T12:26:23;3.30;;;1.20;;
22985;SDS011;11659;51.092;7.080;2022-08-21T12:29:02;2.70;;;1.13;;
22985;SDS011;11659;51.092;7.080;2022-08-21T12:31:47;2.67;;;1.00;;
22985;SDS011;11659;51.092;7.080;2022-08-21T12:34:19;3.27;;;1.17;;
22985;SDS011;11659;51.092;7.080;2022-08-21T12:36:48;1.93;;;1.00;;
22985;SDS011;11659;51.092;7.080;2022-08-21T12:39:19;1.37;;;0.97;;
22985;SDS011;11659;51.092;7.080;2022-08-21T12:41:51;2.17;;;1.13;;
22985;SDS011;11659;51.092;7.080;2022-08-21T12:44:34;1.50;;;1.00;;
22985;SDS011;11659;51.092;7.080;2022-08-21T12:47:06;2.77;;;1.30;;
22985;SDS011;11659;51.092;7.080;2022-08-21T12:49:42;1.33;;;0.97;;
22985;SDS011;11659;51.092;7.080;2022-08-21T12:52:14;3.23;;;0.90;;
22985;SDS011;11659;51.092;7.080;2022-08-21T12:54:47;3.60;;;1.20;;
22985;SDS011;11659;51.092;7.080;2022-08-21T12:57:20;3.30;;;1.30;;
22985;SDS011;11659;51.092;7.080;2022-08-21T12:59:51;4.37;;;1.27;;
22985;SDS011;11659;51.092;7.080;2022-08-21T13:02:20;2.70;;;1.43;;
22985;SDS011;11659;51.092;7.080;2022-08-21T13:04:48;2.07;;;1.00;;
22985;SDS011;11659;51.092;7.080;2022-08-21T13:07:16;2.27;;;1.17;;
22985;SDS011;11659;51.092;7.080;2022-08-21T13:09:49;2.67;;;1.07;;
22985;SDS011;11659;51.092;7.080;2022-08-21T13:12:17;1.40;;;0.90;;
22985;SDS011;11659;51.092;7.080;2022-08-21T13:14:46;1.30;;;0.80;;
22985;SDS011;11659;51.092;7.080;2022-08-21T13:17:16;2.17;;;1.03;;
22985;SDS011;11659;51.092;7.080;2022-08-21T13:19:52;2.33;;;0.93;;
22985;SDS011;11659;51.092;7.080;2022-08-21T13:22:19;2.40;;;1.10;;
22985;SDS011;11659;51.092;7.080;2022-08-21T13:24:46;3.20;;;1.20;;
22985;SDS011;11659;51.092;7.080;2022-08-21T13:27:21;3.37;;;1.10;;
22985;SDS011;11659;51.092;7.080;2022-08-21T13:30:00;2.00;;;1.00;;
22985;SDS011;11659;51.092;7.080;2022-08-21T13:32:33;2.53;;;1.10;;
22985;SDS011;11659;51.092;7.080;2022-08-21T13:35:10;2.83;;;1.40;;
22985;SDS011;11659;51.092;7.080;2022-08-21T13:37:39;3.13;;;1.10;;
22985;SDS011;11659;51.092;7.080;2022-08-21T13:40:07;1.93;;;0.93;;
22985;SDS011;11659;51.092;7.080;2022-08-21T13:42:39;1.00;;;0.80;;
22985;SDS011;11659;51.092;7.080;2022-08-21T13:45:17;1.00;;;0.90;;
22985;SDS011;11659;51.092;7.080;2022-08-21T13:47:47;0.70;;;0.70;;
22985;SDS011;11659;51.092;7.080;2022-08-21T13:50:14;1.67;;;0.90;;
22985;SDS011;11659;51.092;7.080;2022-08-21T13:52:53;1.20;;;0.90;;
22985;SDS011;11659;51.092;7.080;2022-08-21T13:55:22;1.90;;;1.10;;
22985;SDS011;11659;51.092;7.080;2022-08-21T13:57:59;1.60;;;1.00;;
22985;SDS011;11659;51.092;7.080;2022-08-21T14:00:27;2.60;;;1.13;;
22985;SDS011;11659;51.092;7.080;2022-08-21T14:02:59;1.97;;;1.03;;
22985;SDS011;11659;51.092;7.080;2022-08-21T14:05:29;2.80;;;1.10;;
22985;SDS011;11659;51.092;7.080;2022-08-21T14:07:58;1.30;;;0.80;;
22985;SDS011;11659;51.092;7.080;2022-08-21T14:10:28;1.17;;;0.93;;
22985;SDS011;11659;51.092;7.080;2022-08-21T14:12:56;2.53;;;1.10;;
22985;SDS011;11659;51.092;7.080;2022-08-21T14:15:27;1.77;;;1.20;;
22985;SDS011;11659;51.092;7.080;2022-08-21T14:17:57;1.57;;;1.00;;
22985;SDS011;11659;51.092;7.080;2022-08-21T14:20:33;1.93;;;1.10;;
22985;SDS011;11659;51.092;7.080;2022-08-21T14:23:01;2.17;;;1.20;;
22985;SDS011;11659;51.092;7.080;2022-08-21T14:25:28;2.63;;;1.10;;
22985;SDS011;11659;51.092;7.080;2022-08-21T14:28:03;2.13;;;1.20;;
22985;SDS011;11659;51.092;7.080;2022-08-21T14:30:40;1.73;;;1.10;;
22985;SDS011;11659;51.092;7.080;2022-08-21T14:33:08;1.40;;;0.90;;
22985;SDS011;11659;51.092;7.080;2022-08-21T14:35:35;2.23;;;1.10;;
22985;SDS011;11659;51.092;7.080;2022-08-21T14:38:02;1.43;;;0.83;;
22985;SDS011;11659;51.092;7.080;2022-08-21T14:40:36;2.17;;;1.10;;
22985;SDS011;11659;51.092;7.080;2022-08-21T14:43:04;1.67;;;1.10;;
22985;SDS011;11659;51.092;7.080;2022-08-21T14:45:30;2.13;;;1.23;;
22985;SDS011;11659;51.092;7.080;2022-08-21T14:47:57;2.20;;;1.20;;
22985;SDS011;11659;51.092;7.080;2022-08-21T14:50:24;1.67;;;1.00;;
22985;SDS011;11659;51.092;7.080;2022-08-21T14:52:50;1.70;;;1.03;;
22985;SDS011;11659;51.092;7.080;2022-08-21T14:55:16;1.33;;;0.90;;
22985;SDS011;11659;51.092;7.080;2022-08-21T14:57:44;2.00;;;0.80;;
22985;SDS011;11659;51.092;7.080;2022-08-21T15:00:15;1.00;;;0.87;;
22985;SDS011;11659;51.092;7.080;2022-08-21T15:02:43;2.23;;;0.90;;
22985;SDS011;11659;51.092;7.080;2022-08-21T15:05:09;0.90;;;0.90;;